sensor_id;sensor_type;location;lat;lon;timestamp;pressure;altitude;pressure_sealevel;temperature;humidity
17373;BME280;8803;48.116;11.590;2024-03-17T00:00:16;96274.97;;;12.62;100.00
17373;BME280;8803;48.116;11.590;2024-03-17T00:04:37;96265.91;;;12.59;100.00
17373;BME280;8803;48.116;11.590;2024-03-17T00:06:44;96264.83;;;12.56;100.00
17373;BME280;8803;48.116;11.590;2024-03-17T00:11:06;96266.48;;;12.63;100.00
17373;BME280;8803;48.116;11.590;2024-03-17T00:15:27;96254.60;;;12.61;100.00
17373;BME280;8803;48.116;11.590;2024-03-17T00:19:52;96253.60;;;12.62;100.00
17373;BME280;8803;48.116;11.590;2024-03-17T00:24:09;96243.91;;;12.61;100.00
17373;BME280;8803;48.116;11.590;2024-03-17T00:28:30;96253.38;;;12.60;100.00
17373;BME280;8803;48.116;11.590;2024-03-17T00:30:39;96266.65;;;12.56;100.00
17373;BME280;8803;48.116;11.590;2024-03-17T00:32:46;96262.30;;;12.55;100.00
17373;BME280;8803;48.116;11.590;2024-03-17T00:37:05;96256.19;;;12.58;100.00
17373;BME280;8803;48.116;11.590;2024-03-17T00:41:27;96249.52;;;12.58;100.00
17373;BME280;8803;48.116;11.590;2024-03-17T00:45:55;96261.20;;;12.57;100.00
17373;BME280;8803;48.116;11.590;2024-03-17T00:50:16;96251.48;;;12.56;100.00
17373;BME280;8803;48.116;11.590;2024-03-17T00:54:37;96250.00;;;12.58;100.00
17373;BME280;8803;48.116;11.590;2024-03-17T00:56:43;96252.10;;;12.54;100.00
17373;BME280;8803;48.116;11.590;2024-03-17T01:01:05;96249.28;;;12.56;100.00
17373;BME280;8803;48.116;11.590;2024-03-17T01:05:26;96249.28;;;12.56;100.00
17373;BME280;8803;48.116;11.590;2024-03-17T01:09:46;96245.91;;;12.54;100.00
17373;BME280;8803;48.116;11.590;2024-03-17T01:14:06;96260.11;;;12.54;100.00
17373;BME280;8803;48.116;11.590;2024-03-17T01:18:29;96254.77;;;12.54;100.00
17373;BME280;8803;48.116;11.590;2024-03-17T01:20:41;96259.89;;;12.52;100.00
17373;BME280;8803;48.116;11.590;2024-03-17T01:25:01;96242.13;;;12.56;100.00
17373;BME280;8803;48.116;11.590;2024-03-17T01:29:24;96239.83;;;12.57;100.00
17373;BME280;8803;48.116;11.590;2024-03-17T01:31:32;96238.41;;;12.53;100.00
17373;BME280;8803;48.116;11.590;2024-03-17T01:35:52;96227.09;;;12.55;100.00
17373;BME280;8803;48.116;11.590;2024-03-17T01:40:14;96228.31;;;12.51;100.00
17373;BME280;8803;48.116;11.590;2024-03-17T01:44:37;96229.66;;;12.51;100.00
17373;BME280;8803;48.116;11.590;2024-03-17T01:46:45;96225.70;;;12.46;100.00
17373;BME280;8803;48.116;11.590;2024-03-17T01:51:09;96210.53;;;12.46;100.00
17373;BME280;8803;48.116;11.590;2024-03-17T01:55:34;96221.98;;;12.43;100.00
17373;BME280;8803;48.116;11.590;2024-03-17T01:59:57;96220.91;;;12.40;100.00
17373;BME280;8803;48.116;11.590;2024-03-17T02:04:18;96214.48;;;12.37;100.00
17373;BME280;8803;48.116;11.590;2024-03-17T02:08:50;96210.28;;;12.34;100.00
17373;BME280;8803;48.116;11.590;2024-03-17T02:13:10;96215.40;;;12.32;100.00
17373;BME280;8803;48.116;11.590;2024-03-17T02:17:38;96219.41;;;12.32;100.00
17373;BME280;8803;48.116;11.590;2024-03-17T02:19:44;96218.09;;;12.26;100.00
17373;BME280;8803;48.116;11.590;2024-03-17T02:24:07;96222.70;;;12.30;100.00
17373;BME280;8803;48.116;11.590;2024-03-17T02:28:25;96207.64;;;12.29;100.00
17373;BME280;8803;48.116;11.590;2024-03-17T02:30:31;96212.05;;;12.24;100.00
17373;BME280;8803;48.116;11.590;2024-03-17T02:32:40;96209.89;;;12.24;100.00
17373;BME280;8803;48.116;11.590;2024-03-17T02:36:57;96202.92;;;12.27;100.00
17373;BME280;8803;48.116;11.590;2024-03-17T02:41:17;96195.29;;;12.28;100.00
17373;BME280;8803;48.116;11.590;2024-03-17T02:45:37;96185.57;;;12.27;100.00
17373;BME280;8803;48.116;11.590;2024-03-17T02:52:13;96182.56;;;12.26;100.00
17373;BME280;8803;48.116;11.590;2024-03-17T02:56:31;96172.37;;;12.25;100.00
17373;BME280;8803;48.116;11.590;2024-03-17T02:58:40;96177.63;;;12.21;100.00
17373;BME280;8803;48.116;11.590;2024-03-17T03:03:02;96171.18;;;12.24;100.00
17373;BME280;8803;48.116;11.590;2024-03-17T03:07:21;96170.95;;;12.21;100.00
17373;BME280;8803;48.116;11.590;2024-03-17T03:11:42;96172.06;;;12.19;100.00
17373;BME280;8803;48.116;11.590;2024-03-17T03:13:49;96175.27;;;12.13;100.00
17373;BME280;8803;48.116;11.590;2024-03-17T03:18:10;96164.30;;;12.16;100.00
17373;BME280;8803;48.116;11.590;2024-03-17T03:24:37;96168.98;;;12.08;100.00
17373;BME280;8803;48.116;11.590;2024-03-17T03:29:00;96168.52;;;12.09;100.00
17373;BME280;8803;48.116;11.590;2024-03-17T03:31:12;96169.39;;;12.04;100.00
17373;BME280;8803;48.116;11.590;2024-03-17T03:35:38;96169.47;;;12.08;100.00
17373;BME280;8803;48.116;11.590;2024-03-17T03:39:58;96164.28;;;12.06;100.00
17373;BME280;8803;48.116;11.590;2024-03-17T03:44:17;96164.76;;;12.06;100.00
17373;BME280;8803;48.116;11.590;2024-03-17T03:48:38;96163.80;;;12.07;100.00
17373;BME280;8803;48.116;11.590;2024-03-17T03:53:02;96170.47;;;12.07;100.00
17373;BME280;8803;48.116;11.590;2024-03-17T03:57:27;96161.61;;;12.06;100.00
17373;BME280;8803;48.116;11.590;2024-03-17T04:01:53;96159.42;;;12.06;100.00
17373;BME280;8803;48.116;11.590;2024-03-17T04:06:14;96155.90;;;12.05;100.00
17373;BME280;8803;48.116;11.590;2024-03-17T04:10:35;96159.91;;;12.05;100.00
17373;BME280;8803;48.116;11.590;2024-03-17T04:14:57;96153.74;;;12.05;100.00
17373;BME280;8803;48.116;11.590;2024-03-17T04:19:19;96154.70;;;12.04;100.00
17373;BME280;8803;48.116;11.590;2024-03-17T04:23:41;96157.15;;;12.01;100.00
17373;BME280;8803;48.116;11.590;2024-03-17T04:28:01;96155.48;;;12.00;100.00
17373;BME280;8803;48.116;11.590;2024-03-17T04:32:28;96147.61;;;11.99;100.00
17373;BME280;8803;48.116;11.590;2024-03-17T04:34:36;96161.83;;;11.94;100.00
17373;BME280;8803;48.116;11.590;2024-03-17T04:36:44;96161.35;;;11.94;100.00
17373;BME280;8803;48.116;11.590;2024-03-17T04:41:02;96167.40;;;11.96;100.00
17373;BME280;8803;48.116;11.590;2024-03-17T04:45:33;96156.35;;;11.95;100.00
17373;BME280;8803;48.116;11.590;2024-03-17T04:49:53;96158.45;;;11.92;100.00
17373;BME280;8803;48.116;11.590;2024-03-17T04:54:10;96164.75;;;11.90;100.00
17373;BME280;8803;48.116;11.590;2024-03-17T04:58:30;96167.79;;;11.92;100.00
17373;BME280;8803;48.116;11.590;2024-03-17T05:00:40;96168.19;;;11.87;100.00
17373;BME280;8803;48.116;11.590;2024-03-17T05:05:01;96162.45;;;11.92;100.00
17373;BME280;8803;48.116;11.590;2024-03-17T05:09:25;96165.13;;;11.92;100.00
17373;BME280;8803;48.116;11.590;2024-03-17T05:13:48;96169.61;;;11.91;100.00
17373;BME280;8803;48.116;11.590;2024-03-17T05:18:12;96170.45;;;11.92;100.00
17373;BME280;8803;48.116;11.590;2024-03-17T05:22:35;96164.27;;;11.91;100.00
17373;BME280;8803;48.116;11.590;2024-03-17T05:24:46;96163.86;;;11.80;100.00
17373;BME280;8803;48.116;11.590;2024-03-17T05:29:06;96164.71;;;11.81;100.00
17373;BME280;8803;48.116;11.590;2024-03-17T05:33:29;96167.23;;;11.82;100.00
17373;BME280;8803;48.116;11.590;2024-03-17T05:37:55;96173.43;;;11.83;100.00
17373;BME280;8803;48.116;11.590;2024-03-17T05:42:18;96180.47;;;11.84;100.00
17373;BME280;8803;48.116;11.590;2024-03-17T05:46:38;96186.52;;;11.86;100.00
17373;BME280;8803;48.116;11.590;2024-03-17T05:51:05;96188.56;;;11.88;100.00
17373;BME280;8803;48.116;11.590;2024-03-17T05:55:23;96195.34;;;11.86;100.00
17373;BME280;8803;48.116;11.590;2024-03-17T05:59:43;96196.06;;;11.88;100.00
17373;BME280;8803;48.116;11.590;2024-03-17T06:04:04;96195.58;;;11.89;100.00
17373;BME280;8803;48.116;11.590;2024-03-17T06:08:25;96186.86;;;11.87;100.00
17373;BME280;8803;48.116;11.590;2024-03-17T06:10:33;96192.27;;;11.76;100.00
17373;BME280;8803;48.116;11.590;2024-03-17T06:12:40;96191.86;;;11.60;100.00
17373;BME280;8803;48.116;11.590;2024-03-17T06:17:00;96188.34;;;11.59;100.00
17373;BME280;8803;48.116;11.590;2024-03-17T06:21:22;96188.57;;;11.41;100.00
17373;BME280;8803;48.116;11.590;2024-03-17T06:25:44;96194.64;;;11.11;100.00
17373;BME280;8803;48.116;11.590;2024-03-17T06:30:13;96190.42;;;11.35;100.00
17373;BME280;8803;48.116;11.590;2024-03-17T06:34:36;96185.25;;;11.49;100.00
17373;BME280;8803;48.116;11.590;2024-03-17T06:38:56;96180.52;;;11.52;100.00
17373;BME280;8803;48.116;11.590;2024-03-17T06:41:03;96185.77;;;11.63;100.00
17373;BME280;8803;48.116;11.590;2024-03-17T06:43:11;96202.15;;;11.59;100.00
17373;BME280;8803;48.116;11.590;2024-03-17T06:47:30;96188.77;;;11.90;100.00
17373;BME280;8803;48.116;11.590;2024-03-17T06:51:54;96196.48;;;12.14;100.00
17373;BME280;8803;48.116;11.590;2024-03-17T06:56:12;96194.67;;;12.54;100.00
17373;BME280;8803;48.116;11.590;2024-03-17T07:00:35;96182.11;;;12.60;100.00
17373;BME280;8803;48.116;11.590;2024-03-17T07:04:59;96183.30;;;12.62;100.00
17373;BME280;8803;48.116;11.590;2024-03-17T07:09:23;96184.23;;;12.66;100.00
17373;BME280;8803;48.116;11.590;2024-03-17T07:13:41;96179.81;;;12.71;100.00
17373;BME280;8803;48.116;11.590;2024-03-17T07:15:49;96185.62;;;12.61;100.00
17373;BME280;8803;48.116;11.590;2024-03-17T07:20:10;96188.37;;;12.55;100.00
17373;BME280;8803;48.116;11.590;2024-03-17T07:24:29;96183.18;;;12.63;100.00
17373;BME280;8803;48.116;11.590;2024-03-17T07:26:34;96180.26;;;12.76;100.00
17373;BME280;8803;48.116;11.590;2024-03-17T07:33:12;96177.10;;;12.77;100.00
17373;BME280;8803;48.116;11.590;2024-03-17T07:37:31;96189.48;;;13.12;100.00
17373;BME280;8803;48.116;11.590;2024-03-17T07:41:51;96179.22;;;13.45;100.00
17373;BME280;8803;48.116;11.590;2024-03-17T07:43:57;96182.45;;;13.59;100.00
17373;BME280;8803;48.116;11.590;2024-03-17T07:48:17;96174.94;;;13.72;100.00
17373;BME280;8803;48.116;11.590;2024-03-17T07:52:38;96173.66;;;13.85;100.00
17373;BME280;8803;48.116;11.590;2024-03-17T07:56:58;96166.86;;;14.00;100.00
17373;BME280;8803;48.116;11.590;2024-03-17T08:01:17;96153.97;;;14.13;100.00
17373;BME280;8803;48.116;11.590;2024-03-17T08:05:38;96147.73;;;14.22;100.00
17373;BME280;8803;48.116;11.590;2024-03-17T08:10:02;96154.83;;;14.37;100.00
17373;BME280;8803;48.116;11.590;2024-03-17T08:12:09;96147.41;;;14.45;100.00
17373;BME280;8803;48.116;11.590;2024-03-17T08:16:27;96142.92;;;14.63;100.00
17373;BME280;8803;48.116;11.590;2024-03-17T08:20:48;96141.05;;;14.59;100.00
17373;BME280;8803;48.116;11.590;2024-03-17T08:25:09;96140.78;;;14.66;100.00
17373;BME280;8803;48.116;11.590;2024-03-17T08:29:30;96143.98;;;14.83;100.00
17373;BME280;8803;48.116;11.590;2024-03-17T08:33:52;96142.59;;;14.93;100.00
17373;BME280;8803;48.116;11.590;2024-03-17T08:38:15;96141.30;;;14.97;100.00
17373;BME280;8803;48.116;11.590;2024-03-17T08:42:35;96130.98;;;15.06;100.00
17373;BME280;8803;48.116;11.590;2024-03-17T08:46:55;96124.50;;;15.13;100.00
17373;BME280;8803;48.116;11.590;2024-03-17T08:49:01;96120.22;;;15.20;100.00
17373;BME280;8803;48.116;11.590;2024-03-17T08:55:38;96124.91;;;15.35;100.00
17373;BME280;8803;48.116;11.590;2024-03-17T09:00:00;96115.96;;;15.48;100.00
17373;BME280;8803;48.116;11.590;2024-03-17T09:04:20;96117.28;;;15.66;100.00
17373;BME280;8803;48.116;11.590;2024-03-17T09:08:39;96108.42;;;15.73;100.00
17373;BME280;8803;48.116;11.590;2024-03-17T09:12:58;96092.00;;;15.72;98.94
17373;BME280;8803;48.116;11.590;2024-03-17T09:17:21;96088.47;;;15.50;100.00
17373;BME280;8803;48.116;11.590;2024-03-17T09:21:41;96088.66;;;15.53;100.00
17373;BME280;8803;48.116;11.590;2024-03-17T09:26:03;96084.12;;;15.49;99.88
17373;BME280;8803;48.116;11.590;2024-03-17T09:30:23;96097.70;;;15.48;100.00
17373;BME280;8803;48.116;11.590;2024-03-17T09:34:43;96095.03;;;15.34;100.00
17373;BME280;8803;48.116;11.590;2024-03-17T09:39:06;96097.72;;;15.17;97.13
17373;BME280;8803;48.116;11.590;2024-03-17T09:43:31;96093.30;;;15.29;100.00
17373;BME280;8803;48.116;11.590;2024-03-17T09:45:39;96093.63;;;15.26;100.00
17373;BME280;8803;48.116;11.590;2024-03-17T09:49:57;96083.91;;;15.29;100.00
17373;BME280;8803;48.116;11.590;2024-03-17T09:54:19;96078.16;;;15.20;100.00
17373;BME280;8803;48.116;11.590;2024-03-17T09:58:42;96080.00;;;15.41;100.00
17373;BME280;8803;48.116;11.590;2024-03-17T10:03:00;96083.08;;;15.46;99.05
17373;BME280;8803;48.116;11.590;2024-03-17T10:05:18;96081.84;;;15.41;98.98
17373;BME280;8803;48.116;11.590;2024-03-17T10:09:46;96072.70;;;15.47;98.82
17373;BME280;8803;48.116;11.590;2024-03-17T10:14:17;96076.12;;;15.57;100.00
17373;BME280;8803;48.116;11.590;2024-03-17T10:18:38;96073.45;;;15.61;100.00
17373;BME280;8803;48.116;11.590;2024-03-17T10:23:03;96069.16;;;15.68;100.00
17373;BME280;8803;48.116;11.590;2024-03-17T10:27:21;96064.77;;;15.67;100.00
17373;BME280;8803;48.116;11.590;2024-03-17T10:31:46;96065.47;;;15.73;100.00
17373;BME280;8803;48.116;11.590;2024-03-17T10:34:09;96067.16;;;15.70;100.00
17373;BME280;8803;48.116;11.590;2024-03-17T10:36:18;96067.81;;;15.68;100.00
17373;BME280;8803;48.116;11.590;2024-03-17T10:40:39;96056.60;;;15.73;100.00
17373;BME280;8803;48.116;11.590;2024-03-17T10:44:59;96058.84;;;15.82;100.00
17373;BME280;8803;48.116;11.590;2024-03-17T10:47:07;96066.05;;;15.81;100.00
17373;BME280;8803;48.116;11.590;2024-03-17T10:51:31;96058.19;;;15.88;100.00
17373;BME280;8803;48.116;11.590;2024-03-17T10:55:54;96059.87;;;15.93;100.00
17373;BME280;8803;48.116;11.590;2024-03-17T11:00:19;96050.63;;;15.87;84.06
17373;BME280;8803;48.116;11.590;2024-03-17T11:02:26;96054.66;;;15.87;93.32
17373;BME280;8803;48.116;11.590;2024-03-17T11:06:47;96041.77;;;15.95;93.44
17373;BME280;8803;48.116;11.590;2024-03-17T11:11:07;96023.50;;;15.98;88.04
17373;BME280;8803;48.116;11.590;2024-03-17T11:15:41;96027.00;;;15.99;86.50
17373;BME280;8803;48.116;11.590;2024-03-17T11:22:48;96021.84;;;15.71;63.98
17373;BME280;8803;48.116;11.590;2024-03-17T11:27:40;96010.56;;;15.98;87.11
17373;BME280;8803;48.116;11.590;2024-03-17T11:31:59;96004.64;;;15.90;71.69
17373;BME280;8803;48.116;11.590;2024-03-17T11:36:38;96011.53;;;15.89;66.50
17373;BME280;8803;48.116;11.590;2024-03-17T11:41:35;96009.55;;;15.99;70.08
17373;BME280;8803;48.116;11.590;2024-03-17T11:45:58;96001.38;;;16.08;75.63
17373;BME280;8803;48.116;11.590;2024-03-17T11:50:20;96004.74;;;16.10;69.94
17373;BME280;8803;48.116;11.590;2024-03-17T11:54:40;96010.31;;;16.17;71.32
17373;BME280;8803;48.116;11.590;2024-03-17T11:59:07;95999.23;;;16.24;71.63
17373;BME280;8803;48.116;11.590;2024-03-17T12:01:12;96003.12;;;16.25;75.98
17373;BME280;8803;48.116;11.590;2024-03-17T12:03:17;96005.80;;;16.21;68.48
17373;BME280;8803;48.116;11.590;2024-03-17T12:07:42;96003.62;;;16.25;67.38
17373;BME280;8803;48.116;11.590;2024-03-17T12:12:05;96000.42;;;16.21;63.61
17373;BME280;8803;48.116;11.590;2024-03-17T12:16:32;95994.06;;;16.34;73.57
17373;BME280;8803;48.116;11.590;2024-03-17T12:20:50;95991.90;;;16.34;63.90
17373;BME280;8803;48.116;11.590;2024-03-17T12:25:18;95975.44;;;16.41;65.31
17373;BME280;8803;48.116;11.590;2024-03-17T12:29:36;95965.89;;;16.42;67.97
17373;BME280;8803;48.116;11.590;2024-03-17T12:31:43;95969.73;;;16.44;72.15
17373;BME280;8803;48.116;11.590;2024-03-17T12:36:03;95953.80;;;16.46;67.88
17373;BME280;8803;48.116;11.590;2024-03-17T12:40:37;95952.27;;;16.44;67.69
17373;BME280;8803;48.116;11.590;2024-03-17T12:42:46;95953.79;;;16.42;66.85
17373;BME280;8803;48.116;11.590;2024-03-17T12:47:07;95948.73;;;16.47;66.86
17373;BME280;8803;48.116;11.590;2024-03-17T12:49:13;95948.24;;;16.48;72.85
17373;BME280;8803;48.116;11.590;2024-03-17T12:51:18;95941.52;;;16.48;73.60
17373;BME280;8803;48.116;11.590;2024-03-17T12:55:35;95945.09;;;16.52;69.20
17373;BME280;8803;48.116;11.590;2024-03-17T13:00:22;95940.39;;;16.54;67.59
17373;BME280;8803;48.116;11.590;2024-03-17T13:07:44;95940.89;;;16.58;62.61
17373;BME280;8803;48.116;11.590;2024-03-17T13:14:19;95941.56;;;16.56;63.07
17373;BME280;8803;48.116;11.590;2024-03-17T13:18:38;95942.23;;;16.54;67.36
17373;BME280;8803;48.116;11.590;2024-03-17T13:22:57;95941.38;;;16.53;65.38
17373;BME280;8803;48.116;11.590;2024-03-17T13:29:32;95935.86;;;16.63;72.44
17373;BME280;8803;48.116;11.590;2024-03-17T13:33:55;95939.40;;;16.64;74.83
17373;BME280;8803;48.116;11.590;2024-03-17T13:38:21;95929.98;;;16.72;79.24
17373;BME280;8803;48.116;11.590;2024-03-17T13:42:43;95918.55;;;16.78;72.16
17373;BME280;8803;48.116;11.590;2024-03-17T13:44:49;95926.45;;;16.75;77.05
17373;BME280;8803;48.116;11.590;2024-03-17T13:49:09;95923.08;;;16.81;75.46
17373;BME280;8803;48.116;11.590;2024-03-17T13:53:29;95920.40;;;16.77;63.26
17373;BME280;8803;48.116;11.590;2024-03-17T13:57:49;95920.40;;;16.73;63.76
17373;BME280;8803;48.116;11.590;2024-03-17T14:02:08;95916.02;;;16.72;65.69
17373;BME280;8803;48.116;11.590;2024-03-17T14:06:29;95911.00;;;16.65;60.37
17373;BME280;8803;48.116;11.590;2024-03-17T14:10:49;95902.25;;;16.71;64.94
17373;BME280;8803;48.116;11.590;2024-03-17T14:15:14;95899.89;;;16.52;57.87
17373;BME280;8803;48.116;11.590;2024-03-17T14:19:34;95894.52;;;16.60;59.41
17373;BME280;8803;48.116;11.590;2024-03-17T14:23:54;95898.05;;;16.69;74.49
17373;BME280;8803;48.116;11.590;2024-03-17T14:30:36;95895.20;;;16.82;68.27
17373;BME280;8803;48.116;11.590;2024-03-17T14:34:59;95892.52;;;16.78;66.23
17373;BME280;8803;48.116;11.590;2024-03-17T14:39:19;95887.64;;;16.74;67.30
17373;BME280;8803;48.116;11.590;2024-03-17T14:43:39;95889.98;;;16.69;62.43
17373;BME280;8803;48.116;11.590;2024-03-17T14:45:48;95897.88;;;16.62;61.51
17373;BME280;8803;48.116;11.590;2024-03-17T14:50:09;95888.44;;;16.38;57.90
17373;BME280;8803;48.116;11.590;2024-03-17T14:54:27;95882.72;;;16.41;61.90
17373;BME280;8803;48.116;11.590;2024-03-17T14:58:48;95883.88;;;16.34;62.93
17373;BME280;8803;48.116;11.590;2024-03-17T15:03:08;95883.88;;;16.38;72.81
17373;BME280;8803;48.116;11.590;2024-03-17T15:07:31;95884.41;;;16.30;68.24
17373;BME280;8803;48.116;11.590;2024-03-17T15:09:39;95880.70;;;16.23;65.52
17373;BME280;8803;48.116;11.590;2024-03-17T15:11:46;95889.08;;;16.24;66.20
17373;BME280;8803;48.116;11.590;2024-03-17T15:16:08;95879.03;;;16.30;75.28
17373;BME280;8803;48.116;11.590;2024-03-17T15:20:33;95875.50;;;16.33;80.60
17373;BME280;8803;48.116;11.590;2024-03-17T15:24:54;95868.78;;;16.29;79.20
17373;BME280;8803;48.116;11.590;2024-03-17T15:29:15;95863.41;;;16.29;82.61
17373;BME280;8803;48.116;11.590;2024-03-17T15:33:37;95868.28;;;16.30;88.09
17373;BME280;8803;48.116;11.590;2024-03-17T15:35:45;95866.41;;;16.22;79.38
17373;BME280;8803;48.116;11.590;2024-03-17T15:40:06;95865.42;;;16.23;86.97
17373;BME280;8803;48.116;11.590;2024-03-17T15:42:12;95867.75;;;16.18;85.48
17373;BME280;8803;48.116;11.590;2024-03-17T15:44:18;95865.73;;;16.12;83.83
17373;BME280;8803;48.116;11.590;2024-03-17T15:48:41;95858.03;;;16.17;88.31
17373;BME280;8803;48.116;11.590;2024-03-17T15:50:56;95861.70;;;16.12;89.22
17373;BME280;8803;48.116;11.590;2024-03-17T15:57:36;95859.52;;;16.08;85.41
17373;BME280;8803;48.116;11.590;2024-03-17T16:01:55;95860.36;;;16.08;86.41
17373;BME280;8803;48.116;11.590;2024-03-17T16:04:05;95865.38;;;16.03;86.17
17373;BME280;8803;48.116;11.590;2024-03-17T16:06:13;95864.39;;;16.04;92.19
17373;BME280;8803;48.116;11.590;2024-03-17T16:12:52;95852.80;;;16.04;97.76
17373;BME280;8803;48.116;11.590;2024-03-17T16:14:59;95860.17;;;15.98;95.33
17373;BME280;8803;48.116;11.590;2024-03-17T16:19:19;95858.84;;;16.02;99.57
17373;BME280;8803;48.116;11.590;2024-03-17T16:23:40;95859.83;;;15.97;97.36
17373;BME280;8803;48.116;11.590;2024-03-17T16:25:48;95854.13;;;15.92;99.84
17373;BME280;8803;48.116;11.590;2024-03-17T16:30:10;95854.27;;;15.90;96.75
17373;BME280;8803;48.116;11.590;2024-03-17T16:32:16;95859.13;;;15.87;100.00
17373;BME280;8803;48.116;11.590;2024-03-17T16:38:49;95854.78;;;15.86;100.00
17373;BME280;8803;48.116;11.590;2024-03-17T16:43:11;95866.19;;;15.84;100.00
17373;BME280;8803;48.116;11.590;2024-03-17T16:47:34;95867.84;;;15.80;100.00
17373;BME280;8803;48.116;11.590;2024-03-17T16:51:56;95862.80;;;15.77;100.00
17373;BME280;8803;48.116;11.590;2024-03-17T16:56:18;95872.19;;;15.77;100.00
17373;BME280;8803;48.116;11.590;2024-03-17T17:00:38;95873.12;;;15.56;95.11
17373;BME280;8803;48.116;11.590;2024-03-17T17:05:01;95877.06;;;15.40;81.59
17373;BME280;8803;48.116;11.590;2024-03-17T17:09:26;95884.34;;;15.18;72.30
17373;BME280;8803;48.116;11.590;2024-03-17T17:13:48;95882.88;;;15.28;81.52
17373;BME280;8803;48.116;11.590;2024-03-17T17:18:45;95885.09;;;15.36;100.00
17373;BME280;8803;48.116;11.590;2024-03-17T17:22:33;95879.91;;;15.39;100.00
17373;BME280;8803;48.116;11.590;2024-03-17T17:26:52;95879.55;;;15.34;100.00
17373;BME280;8803;48.116;11.590;2024-03-17T17:31:15;95873.75;;;15.17;87.53
17373;BME280;8803;48.116;11.590;2024-03-17T17:35:34;95883.97;;;15.13;89.03
17373;BME280;8803;48.116;11.590;2024-03-17T17:39:58;95881.98;;;15.19;96.66
17373;BME280;8803;48.116;11.590;2024-03-17T17:44:19;95887.03;;;15.18;98.78
17373;BME280;8803;48.116;11.590;2024-03-17T17:48:40;95879.98;;;15.21;100.00
17373;BME280;8803;48.116;11.590;2024-03-17T17:53:04;95879.66;;;15.20;100.00
17373;BME280;8803;48.116;11.590;2024-03-17T17:57:25;95877.64;;;15.18;100.00
17373;BME280;8803;48.116;11.590;2024-03-17T18:01:48;95882.25;;;15.08;100.00
17373;BME280;8803;48.116;11.590;2024-03-17T18:06:10;95885.62;;;15.10;100.00
17373;BME280;8803;48.116;11.590;2024-03-17T18:10:36;95878.19;;;15.00;100.00
17373;BME280;8803;48.116;11.590;2024-03-17T18:14:53;95875.02;;;15.00;100.00
17373;BME280;8803;48.116;11.590;2024-03-17T18:19:13;95876.27;;;14.84;100.00
17373;BME280;8803;48.116;11.590;2024-03-17T18:23:31;95876.76;;;14.84;100.00
17373;BME280;8803;48.116;11.590;2024-03-17T18:27:54;95875.50;;;14.74;100.00
17373;BME280;8803;48.116;11.590;2024-03-17T18:32:13;95878.35;;;14.73;100.00
17373;BME280;8803;48.116;11.590;2024-03-17T18:36:33;95882.17;;;14.45;86.39
17373;BME280;8803;48.116;11.590;2024-03-17T18:41:01;95887.68;;;14.65;100.00
17373;BME280;8803;48.116;11.590;2024-03-17T18:45:22;95895.42;;;14.68;100.00
17373;BME280;8803;48.116;11.590;2024-03-17T18:49:43;95877.34;;;14.70;100.00
17373;BME280;8803;48.116;11.590;2024-03-17T18:54:02;95885.71;;;14.71;100.00
17373;BME280;8803;48.116;11.590;2024-03-17T18:58:25;95874.50;;;14.71;100.00
17373;BME280;8803;48.116;11.590;2024-03-17T19:00:33;95879.64;;;14.65;100.00
17373;BME280;8803;48.116;11.590;2024-03-17T19:04:53;95872.91;;;14.61;100.00
17373;BME280;8803;48.116;11.590;2024-03-17T19:09:11;95865.02;;;14.55;100.00
17373;BME280;8803;48.116;11.590;2024-03-17T19:13:34;95870.45;;;14.46;100.00
17373;BME280;8803;48.116;11.590;2024-03-17T19:15:40;95884.17;;;14.43;100.00
17373;BME280;8803;48.116;11.590;2024-03-17T19:19:59;95872.11;;;14.43;100.00
17373;BME280;8803;48.116;11.590;2024-03-17T19:24:16;95869.44;;;14.43;100.00
17373;BME280;8803;48.116;11.590;2024-03-17T19:28:36;95864.56;;;14.42;100.00
17373;BME280;8803;48.116;11.590;2024-03-17T19:30:43;95877.58;;;14.37;100.00
17373;BME280;8803;48.116;11.590;2024-03-17T19:32:49;95874.05;;;14.37;100.00
17373;BME280;8803;48.116;11.590;2024-03-17T19:34:56;95877.37;;;14.35;100.00
17373;BME280;8803;48.116;11.590;2024-03-17T19:39:15;95869.02;;;14.20;100.00
17373;BME280;8803;48.116;11.590;2024-03-17T19:41:24;95874.21;;;14.17;100.00
17373;BME280;8803;48.116;11.590;2024-03-17T19:43:30;95876.36;;;14.18;100.00
17373;BME280;8803;48.116;11.590;2024-03-17T19:45:37;95873.56;;;14.19;100.00
17373;BME280;8803;48.116;11.590;2024-03-17T19:49:56;95863.70;;;14.24;100.00
17373;BME280;8803;48.116;11.590;2024-03-17T19:54:13;95868.92;;;14.25;100.00
17373;BME280;8803;48.116;11.590;2024-03-17T19:58:32;95870.42;;;14.28;100.00
17373;BME280;8803;48.116;11.590;2024-03-17T20:02:54;95865.45;;;14.29;100.00
17373;BME280;8803;48.116;11.590;2024-03-17T20:05:04;95872.41;;;14.26;100.00
17373;BME280;8803;48.116;11.590;2024-03-17T20:09:26;95868.63;;;14.29;100.00
17373;BME280;8803;48.116;11.590;2024-03-17T20:11:31;95870.75;;;14.25;100.00
17373;BME280;8803;48.116;11.590;2024-03-17T20:15:52;95869.47;;;14.29;100.00
17373;BME280;8803;48.116;11.590;2024-03-17T20:20:12;95859.45;;;14.31;100.00
17373;BME280;8803;48.116;11.590;2024-03-17T20:24:31;95866.83;;;14.33;100.00
17373;BME280;8803;48.116;11.590;2024-03-17T20:26:39;95868.14;;;14.29;100.00
17373;BME280;8803;48.116;11.590;2024-03-17T20:30:59;95854.77;;;14.33;100.00
17373;BME280;8803;48.116;11.590;2024-03-17T20:35:20;95853.44;;;14.33;100.00
17373;BME280;8803;48.116;11.590;2024-03-17T20:39:41;95848.57;;;14.33;100.00
17373;BME280;8803;48.116;11.590;2024-03-17T20:44:00;95851.91;;;14.31;100.00
17373;BME280;8803;48.116;11.590;2024-03-17T20:48:18;95839.16;;;14.29;100.00
17373;BME280;8803;48.116;11.590;2024-03-17T20:52:38;95834.27;;;14.28;100.00
17373;BME280;8803;48.116;11.590;2024-03-17T20:56:55;95835.94;;;14.25;100.00
17373;BME280;8803;48.116;11.590;2024-03-17T21:01:14;95827.41;;;14.25;100.00